Time;durP1;ratioP1;P1;durP2;ratioP2;P2;SDS_P1;SDS_P2;PMS_P1;PMS_P2;Temp;Humidity;BMP_temperature;BMP_pressure;BME280_temperature;BME280_humidity;BME280_pressure;Samples;Min_cycle;Max_cycle;Signal;HPM_P1;HPM_P2
2022/06/29 00:00:07;;;;;;;4.40;0.77;;;;;;;;;;4982242;28;20055;-89
2022/06/29 00:02:33;;;;;;;1.00;0.85;;;;;;;;;;4983464;28;20093;-89
2022/06/29 00:04:59;;;;;;;4.82;0.70;;;;;;;;;;4972484;28;20070;-90
2022/06/29 00:07:25;;;;;;;1.67;0.63;;;;;;;;;;4973400;28;20031;-89
2022/06/29 00:09:51;;;;;;;8.55;1.33;;;;;;;;;;4972503;28;20030;-90
2022/06/29 00:12:17;;;;;;;1.00;0.57;;;;;;;;;;4972539;28;20035;-90
2022/06/29 00:14:43;;;;;;;1.30;0.70;;;;;;;;;;4973020;28;20523;-90
2022/06/29 00:17:12;;;;;;;0.73;0.50;;;;;;;;;;4971559;28;20031;-90
2022/06/29 00:19:39;;;;;;;1.50;0.80;;;;;;;;;;4976957;28;20034;-90
2022/06/29 00:22:05;;;;;;;0.83;0.70;;;;;;;;;;4972557;28;20046;-90
2022/06/29 00:24:32;;;;;;;1.67;1.17;;;;;;;;;;4972315;28;20034;-89
2022/06/29 00:26:58;;;;;;;3.05;1.13;;;;;;;;;;4972567;28;20039;-89
2022/06/29 00:29:24;;;;;;;0.55;0.55;;;;;;;;;;4973100;28;20816;-89
2022/06/29 00:31:50;;;;;;;1.67;0.80;;;;;;;;;;5001291;28;20099;-89
2022/06/29 00:34:16;;;;;;;2.67;1.00;;;;;;;;;;4972217;28;20022;-91
2022/06/29 00:36:42;;;;;;;2.03;1.85;;;;;;;;;;4974576;28;20034;-88
2022/06/29 00:39:08;;;;;;;3.20;2.08;;;;;;;;;;4964599;28;20102;-89
2022/06/29 00:41:38;;;;;;;2.30;0.68;;;18.80;88.90;;;;;;4983398;28;20041;-89
2022/06/29 00:44:04;;;;;;;1.20;0.80;;;;;;;;;;4986881;28;20046;-91
2022/06/29 00:46:30;;;;;;;1.55;1.08;;;;;;;;;;4975603;28;20038;-90
2022/06/29 00:48:56;;;;;;;0.90;0.68;;;;;;;;;;4975933;28;20019;-89
2022/06/29 00:51:23;;;;;;;2.15;0.73;;;;;;;;;;4976714;28;20042;-89
2022/06/29 00:53:51;;;;;;;2.80;0.80;;;18.90;89.50;;;;;;4976021;28;20518;-89
2022/06/29 00:56:19;;;;;;;0.98;0.70;;;18.90;89.40;;;;;;4975515;28;20042;-89
2022/06/29 00:58:46;;;;;;;5.60;0.65;;;18.60;88.70;;;;;;4975276;28;20027;-90
2022/06/29 01:01:14;;;;;;;2.17;1.20;;;18.80;88.60;;;;;;4962923;28;20133;-90
2022/06/29 01:03:40;;;;;;;1.60;0.90;;;;;;;;;;4991077;28;20389;-89
2022/06/29 01:06:06;;;;;;;0.80;0.80;;;;;;;;;;4974666;28;20030;-91
2022/06/29 01:08:32;;;;;;;1.13;0.77;;;18.80;89.10;;;;;;4985510;28;20026;-90
2022/06/29 01:10:58;;;;;;;4.93;1.10;;;;;;;;;;4986023;28;20049;-91
2022/06/29 01:13:24;;;;;;;1.20;1.10;;;;;;;;;;4981612;28;20077;-89
2022/06/29 01:15:50;;;;;;;0.90;0.68;;;;;;;;;;5002237;28;20125;-89
2022/06/29 01:18:17;;;;;;;1.67;1.23;;;;;;;;;;4976321;28;20031;-89
2022/06/29 01:20:43;;;;;;;1.48;1.30;;;;;;;;;;4975979;28;20154;-89
2022/06/29 01:23:09;;;;;;;1.05;0.95;;;;;;;;;;4975450;28;20054;-89
2022/06/29 01:25:35;;;;;;;7.30;1.00;;;;;;;;;;4990873;28;20081;-90
2022/06/29 01:28:01;;;;;;;1.48;1.08;;;;;;;;;;4977750;28;20404;-89
2022/06/29 01:30:27;;;;;;;3.65;1.73;;;;;;;;;;4973633;28;20125;-90
2022/06/29 01:32:53;;;;;;;2.38;1.52;;;;;;;;;;4975590;28;20038;-89
2022/06/29 01:35:23;;;;;;;2.08;0.98;;;;;;;;;;4975893;28;20035;-92
2022/06/29 01:37:49;;;;;;;1.25;1.05;;;;;;;;;;4984474;28;20030;-89
2022/06/29 01:40:15;;;;;;;1.65;1.17;;;;;;;;;;4971629;28;20054;-90
2022/06/29 01:42:41;;;;;;;0.80;0.80;;;;;;;;;;4974091;28;20058;-90
2022/06/29 01:45:07;;;;;;;3.28;0.98;;;;;;;;;;4984054;28;20059;-89
2022/06/29 01:47:33;;;;;;;0.68;0.50;;;;;;;;;;4972761;28;20039;-89
2022/06/29 01:49:59;;;;;;;1.50;0.80;;;;;;;;;;4971689;28;20059;-89
2022/06/29 01:52:25;;;;;;;0.77;0.52;;;;;;;;;;4981162;28;20061;-89
2022/06/29 01:54:51;;;;;;;1.05;0.90;;;;;;;;;;4977771;28;20073;-89
2022/06/29 01:57:17;;;;;;;2.75;0.88;;;;;;;;;;4989837;28;20057;-89
2022/06/29 01:59:43;;;;;;;5.60;0.88;;;;;;;;;;4983985;28;20027;-90
2022/06/29 02:02:09;;;;;;;1.60;0.65;;;;;;;;;;4985648;28;20034;-91
2022/06/29 02:04:35;;;;;;;3.40;0.68;;;;;;;;;;4974582;28;20027;-90
2022/06/29 02:07:02;;;;;;;1.35;0.93;;;18.70;89.20;;;;;;4970064;28;20109;-90
2022/06/29 02:09:28;;;;;;;24.10;2.05;;;;;;;;;;4990042;28;20035;-89
2022/06/29 02:11:54;;;;;;;2.60;0.70;;;;;;;;;;4989839;28;20026;-90
2022/06/29 02:14:20;;;;;;;1.58;1.20;;;;;;;;;;4983612;28;20042;-89
2022/06/29 02:16:46;;;;;;;2.28;0.75;;;;;;;;;;4999652;28;20110;-90
2022/06/29 02:19:12;;;;;;;2.58;0.90;;;;;;;;;;4974773;28;20043;-89
2022/06/29 02:21:38;;;;;;;8.75;1.50;;;;;;;;;;4974745;28;20026;-89
2022/06/29 02:24:04;;;;;;;5.82;0.90;;;;;;;;;;4985066;28;20113;-89
2022/06/29 02:26:30;;;;;;;0.95;0.68;;;;;;;;;;4974355;28;20078;-89
2022/06/29 02:28:57;;;;;;;0.82;0.80;;;;;;;;;;4974584;28;20052;-90
2022/06/29 02:36:52;;;;;;;1.13;0.70;;;;;;;;;;4972837;28;20159;-90
2022/06/29 02:39:18;;;;;;;1.48;1.33;;;;;;;;;;4970674;28;20109;-91
2022/06/29 02:41:44;;;;;;;1.17;0.70;;;;;;;;;;4978244;28;20500;-92
2022/06/29 02:44:10;;;;;;;4.13;1.23;;;;;;;;;;4974448;28;20046;-89
2022/06/29 02:46:36;;;;;;;1.55;0.80;;;;;;;;;;4963480;28;20066;-89
2022/06/29 02:49:02;;;;;;;2.00;0.85;;;;;;;;;;4972864;28;20411;-89
2022/06/29 02:51:29;;;;;;;0.85;0.73;;;;;;;;;;4965991;28;20035;-89
2022/06/29 02:53:55;;;;;;;2.13;0.90;;;;;;;;;;4973733;28;20027;-91
2022/06/29 02:56:21;;;;;;;5.20;1.38;;;;;;;;;;4976051;28;20061;-91
2022/06/29 02:58:46;;;;;;;1.10;1.00;;;;;;;;;;4986149;28;20091;-89
2022/06/29 03:01:13;;;;;;;2.42;1.35;;;;;;;;;;4974762;28;20392;-88
2022/06/29 03:03:38;;;;;;;0.57;0.50;;;;;;;;;;4973938;28;20030;-89
2022/06/29 03:06:04;;;;;;;1.92;0.77;;;;;;;;;;4973932;28;20453;-90
2022/06/29 03:08:30;;;;;;;0.55;0.55;;;;;;;;;;4983356;28;20026;-89
2022/06/29 03:10:56;;;;;;;2.20;0.98;;;;;;;;;;4985500;28;20419;-90
2022/06/29 03:13:22;;;;;;;0.65;0.57;;;;;;;;;;4972827;28;20026;-89
2022/06/29 03:15:48;;;;;;;2.80;0.70;;;;;;;;;;4971831;28;20040;-89
2022/06/29 03:18:14;;;;;;;3.13;0.65;;;;;;;;;;4973158;28;20113;-91
2022/06/29 03:20:40;;;;;;;2.30;0.80;;;;;;;;;;4973268;28;20114;-89
2022/06/29 03:23:06;;;;;;;3.92;0.77;;;;;;;;;;4972887;28;20041;-90
2022/06/29 03:25:32;;;;;;;1.08;0.90;;;;;;;;;;4980761;28;20026;-88
2022/06/29 03:27:58;;;;;;;0.50;0.50;;;;;;;;;;4976127;28;20113;-89
2022/06/29 03:30:24;;;;;;;1.58;0.65;;;;;;;;;;4969109;28;20027;-89
2022/06/29 03:32:50;;;;;;;1.08;0.98;;;;;;;;;;4983114;28;20019;-89
2022/06/29 03:35:16;;;;;;;2.33;0.75;;;;;;;;;;4972747;28;20041;-89
2022/06/29 03:37:42;;;;;;;2.35;2.15;;;;;;;;;;4973410;28;20435;-89
2022/06/29 03:40:09;;;;;;;2.97;1.10;;;18.80;97.50;;;;;;4973082;28;20034;-89
2022/06/29 03:42:35;;;;;;;0.45;0.45;;;;;;;;;;4972378;28;20047;-88
2022/06/29 03:45:01;;;;;;;1.80;0.95;;;;;;;;;;4972879;28;20030;-90
2022/06/29 03:47:27;;;;;;;1.73;1.05;;;;;;;;;;4988615;28;20031;-90
2022/06/29 03:49:53;;;;;;;1.27;0.95;;;;;;;;;;4974169;28;20033;-90
2022/06/29 03:52:19;;;;;;;1.30;0.75;;;;;;;;;;4973031;28;20126;-89
2022/06/29 03:54:45;;;;;;;1.27;0.80;;;;;;;;;;4973318;28;20030;-90
2022/06/29 03:57:11;;;;;;;2.78;0.77;;;;;;;;;;4981315;28;20026;-89
2022/06/29 03:59:37;;;;;;;0.95;0.80;;;;;;;;;;4972299;28;20481;-89
2022/06/29 04:02:03;;;;;;;1.13;1.00;;;;;;;;;;4980395;28;20038;-90
2022/06/29 04:04:29;;;;;;;1.85;0.98;;;;;;;;;;4979325;28;20026;-91
2022/06/29 04:06:55;;;;;;;1.92;0.82;;;;;;;;;;4979286;28;20034;-90
2022/06/29 04:09:21;;;;;;;4.25;0.90;;;;;;;;;;4981095;28;20041;-89
2022/06/29 04:11:52;;;;;;;3.63;1.00;;;;;;;;;;4972952;28;20027;-90
2022/06/29 04:14:23;;;;;;;0.95;0.75;;;18.40;86.30;;;;;;4972326;28;26978;-88
2022/06/29 04:16:51;;;;;;;1.33;0.70;;;18.40;87.20;;;;;;4972524;28;20042;-90
2022/06/29 04:19:17;;;;;;;3.50;0.73;;;;;;;;;;4973403;28;20046;-89
2022/06/29 04:21:43;;;;;;;1.48;1.00;;;;;;;;;;4972618;28;20073;-89
2022/06/29 04:24:09;;;;;;;3.13;0.90;;;;;;;;;;4963856;28;20381;-89
2022/06/29 04:26:35;;;;;;;1.52;1.13;;;;;;;;;;4973191;28;20022;-89
2022/06/29 04:29:01;;;;;;;2.83;1.15;;;;;;;;;;4965067;28;20023;-90
2022/06/29 04:31:27;;;;;;;1.27;0.80;;;;;;;;;;4973285;28;20026;-90
2022/06/29 04:33:53;;;;;;;1.65;1.00;;;;;;;;;;4970707;28;20027;-90
2022/06/29 04:36:19;;;;;;;1.38;0.75;;;;;;;;;;4980343;28;20545;-90
2022/06/29 04:38:45;;;;;;;1.48;0.95;;;;;;;;;;4979467;28;20030;-90
2022/06/29 04:41:11;;;;;;;1.10;0.90;;;;;;;;;;4988294;28;20056;-90
2022/06/29 04:43:37;;;;;;;3.05;0.88;;;;;;;;;;4972773;28;20055;-89
2022/06/29 04:48:56;;;;;;;2.30;1.42;;;18.30;89.00;;;;;;4973046;28;20403;-90
2022/06/29 04:51:23;;;;;;;1.60;0.70;;;;;;;;;;4972459;28;20035;-89
2022/06/29 04:53:49;;;;;;;0.93;0.75;;;;;;;;;;4972317;28;20058;-90
2022/06/29 04:56:16;;;;;;;1.23;1.02;;;18.40;89.30;;;;;;4983950;28;20443;-91
2022/06/29 04:58:43;;;;;;;1.80;0.63;;;18.40;89.40;;;;;;4973109;28;20082;-90
2022/06/29 05:01:09;;;;;;;0.87;0.87;;;;;;;;;;4972254;28;20041;-89
2022/06/29 05:03:35;;;;;;;4.07;1.55;;;;;;;;;;4972123;28;20683;-90
2022/06/29 05:06:01;;;;;;;4.65;0.95;;;;;;;;;;4972533;28;20485;-90
2022/06/29 05:08:27;;;;;;;1.02;0.70;;;;;;;;;;4972755;28;20115;-89
2022/06/29 05:10:53;;;;;;;1.63;1.00;;;;;;;;;;4982928;28;20077;-90
2022/06/29 05:13:19;;;;;;;7.40;1.00;;;;;;;;;;4975326;28;20042;-89
2022/06/29 05:15:45;;;;;;;0.93;0.80;;;;;;;;;;4981296;28;20543;-89
2022/06/29 05:18:11;;;;;;;1.75;0.77;;;;;;;;;;4969042;28;20166;-89
2022/06/29 05:20:37;;;;;;;2.75;1.67;;;;;;;;;;4982308;28;20037;-90
2022/06/29 05:23:04;;;;;;;2.33;1.10;;;;;;;;;;4983287;28;20122;-89
2022/06/29 05:25:30;;;;;;;1.55;1.08;;;;;;;;;;4962779;28;20030;-88
2022/06/29 05:27:56;;;;;;;5.15;1.20;;;;;;;;;;4967364;28;20038;-88
2022/06/29 05:30:22;;;;;;;1.77;1.40;;;;;;;;;;4973555;28;20110;-89
2022/06/29 05:32:48;;;;;;;0.80;0.77;;;;;;;;;;4973558;28;20407;-89
2022/06/29 05:35:14;;;;;;;0.98;0.85;;;;;;;;;;4983305;28;20031;-89
2022/06/29 05:37:40;;;;;;;3.40;1.42;;;;;;;;;;4977293;28;20022;-87
2022/06/29 05:40:07;;;;;;;5.80;1.60;;;;;;;;;;4972191;28;20014;-89
2022/06/29 05:42:33;;;;;;;1.20;0.95;;;;;;;;;;4969814;28;20138;-89
2022/06/29 05:44:59;;;;;;;1.08;0.98;;;;;;;;;;4974676;28;20035;-88
2022/06/29 05:47:25;;;;;;;2.13;0.77;;;;;;;;;;4971205;28;20031;-89
2022/06/29 05:49:50;;;;;;;1.10;0.80;;;;;;;;;;4976379;28;20033;-89
2022/06/29 05:52:16;;;;;;;5.03;1.38;;;;;;;;;;4977827;28;20038;-90
2022/06/29 05:54:42;;;;;;;1.48;1.20;;;;;;;;;;4974230;28;20031;-87
2022/06/29 05:57:09;;;;;;;1.23;0.80;;;;;;;;;;4966971;28;20499;-88
2022/06/29 05:59:35;;;;;;;2.15;0.98;;;;;;;;;;4977415;28;20539;-88
2022/06/29 06:02:01;;;;;;;5.65;0.93;;;;;;;;;;4969199;28;20043;-87
2022/06/29 06:04:27;;;;;;;2.97;0.93;;;;;;;;;;4971459;28;20614;-91
2022/06/29 06:06:53;;;;;;;2.20;1.08;;;;;;;;;;4970526;28;20117;-90
2022/06/29 06:09:22;;;;;;;6.82;0.90;;;;;;;;;;4974628;28;20373;-90
2022/06/29 06:11:48;;;;;;;3.72;0.98;;;;;;;;;;4972169;28;20041;-89
2022/06/29 06:14:14;;;;;;;2.45;1.40;;;;;;;;;;4971816;28;20031;-87
2022/06/29 06:16:40;;;;;;;1.48;1.00;;;;;;;;;;4971344;28;20030;-87
2022/06/29 06:19:06;;;;;;;3.08;1.42;;;;;;;;;;4970254;28;20023;-87
2022/06/29 06:21:32;;;;;;;2.15;1.77;;;;;;;;;;4968480;28;20058;-79
2022/06/29 06:23:58;;;;;;;2.72;0.73;;;;;;;;;;4966510;28;20061;-79
2022/06/29 06:26:24;;;;;;;0.60;0.52;;;;;;;;;;4968675;28;20038;-78
2022/06/29 06:28:52;;;;;;;1.48;0.80;;;;;;;;;;4969979;28;20037;-79
2022/06/29 06:31:18;;;;;;;2.08;1.50;;;;;;;;;;4969580;28;20030;-79
2022/06/29 06:33:44;;;;;;;2.10;1.02;;;;;;;;;;4969653;28;20594;-81
2022/06/29 06:36:10;;;;;;;10.43;0.95;;;;;;;;;;4970312;28;20027;-80
2022/06/29 06:38:35;;;;;;;1.05;0.80;;;;;;;;;;4969997;28;20050;-79
2022/06/29 06:43:46;;;;;;;1.73;1.38;;;;;;;;;;4960989;28;20058;-79
2022/06/29 06:46:12;;;;;;;3.75;1.65;;;;;;;;;;4966233;28;20039;-79
2022/06/29 06:48:38;;;;;;;6.78;1.40;;;;;;;;;;4968967;28;20058;-79
2022/06/29 06:51:04;;;;;;;3.50;0.90;;;;;;;;;;4968438;28;20057;-79
2022/06/29 06:53:31;;;;;;;2.03;1.77;;;20.90;75.60;;;;;;4967062;28;20074;-78
2022/06/29 06:55:57;;;;;;;1.73;0.85;;;;;;;;;;4968722;28;20121;-82
2022/06/29 06:58:24;;;;;;;1.08;0.75;;;;;;;;;;4968020;28;20038;-81
2022/06/29 07:00:50;;;;;;;0.60;0.38;;;24.90;64.80;;;;;;4968095;28;20101;-80
2022/06/29 07:03:16;;;;;;;0.70;0.40;;;;;;;;;;4968718;28;20050;-80
2022/06/29 07:05:42;;;;;;;1.15;0.30;;;;;;;;;;4980704;28;20404;-79
2022/06/29 07:08:08;;;;;;;0.77;0.30;;;;;;;;;;4967322;28;20039;-80
2022/06/29 07:10:34;;;;;;;0.77;0.60;;;;;;;;;;4967373;28;20027;-80
2022/06/29 07:13:00;;;;;;;5.05;1.20;;;;;;;;;;4965931;28;20054;-80
2022/06/29 07:15:26;;;;;;;3.60;0.43;;;;;;;;;;4967558;28;20588;-79
2022/06/29 07:17:52;;;;;;;0.55;0.30;;;;;;;;;;4966171;28;20027;-79
2022/06/29 07:20:18;;;;;;;2.58;0.75;;;;;;;;;;4965748;28;20029;-79
2022/06/29 07:22:44;;;;;;;0.77;0.40;;;;;;;;;;4967896;28;20077;-88
2022/06/29 07:25:10;;;;;;;0.40;0.30;;;;;;;;;;4984044;28;20031;-91
2022/06/29 07:27:36;;;;;;;0.88;0.25;;;;;;;;;;4974379;28;20614;-93
2022/06/29 07:30:03;;;;;;;2.67;0.40;;;;;;;;;;4971932;28;20015;-90
2022/06/29 07:32:30;;;;;;;4.10;0.90;;;;;;;;;;4987413;28;20045;-92
2022/06/29 07:34:56;;;;;;;1.50;0.70;;;;;;;;;;4974917;28;20085;-88
2022/06/29 07:37:22;;;;;;;1.23;0.47;;;;;;;;;;4969232;28;20058;-88
2022/06/29 07:39:47;;;;;;;;;;;32.30;43.80;;;;;;4969302;28;20088;-88
2022/06/29 07:42:13;;;;;;;1.58;0.30;;;;;;;;;;4965277;28;20392;-91
2022/06/29 07:44:39;;;;;;;1.42;0.45;;;;;;;;;;4969303;28;20061;-89
2022/06/29 07:47:06;;;;;;;4.85;0.45;;;;;;;;;;4984302;28;20121;-89
2022/06/29 07:49:31;;;;;;;;;;;33.20;42.00;;;;;;4965675;28;20027;-92
2022/06/29 07:51:57;;;;;;;0.60;0.40;;;;;;;;;;4981730;28;19910;-89
2022/06/29 07:54:23;;;;;;;2.95;0.35;;;;;;;;;;4967488;28;20723;-92
2022/06/29 07:56:49;;;;;;;0.90;0.50;;;;;;;;;;4969384;28;20027;-80
2022/06/29 07:59:15;;;;;;;0.63;0.28;;;;;;;;;;4966347;28;20572;-79
2022/06/29 08:01:41;;;;;;;3.13;0.38;;;;;;;;;;4967203;28;20030;-79
2022/06/29 08:04:07;;;;;;;2.05;0.55;;;;;;;;;;4966194;28;20049;-80
2022/06/29 08:06:33;;;;;;;0.40;0.22;;;;;;;;;;4965912;28;20451;-84
2022/06/29 08:09:00;;;;;;;4.30;0.98;;;;;;;;;;4965370;28;20038;-84
2022/06/29 08:11:26;;;;;;;4.60;0.50;;;;;;;;;;4965383;28;20069;-84
2022/06/29 08:13:52;;;;;;;1.83;0.20;;;;;;;;;;4965749;28;20033;-84
2022/06/29 08:16:18;;;;;;;1.67;0.50;;;;;;;;;;4961798;28;20038;-84
2022/06/29 08:18:44;;;;;;;1.40;0.73;;;;;;;;;;4975148;28;20023;-82
2022/06/29 08:21:10;;;;;;;1.98;0.25;;;;;;;;;;4975114;28;20041;-82
2022/06/29 08:23:36;;;;;;;2.10;0.40;;;;;;;;;;4969041;28;20088;-82
2022/06/29 08:26:02;;;;;;;1.75;0.38;;;;;;;;;;4970499;28;20035;-82
2022/06/29 08:28:28;;;;;;;0.60;0.32;;;;;;;;;;4981918;28;20610;-81
2022/06/29 08:30:54;;;;;;;3.35;0.40;;;35.20;37.40;;;;;;4977805;28;20109;-81
2022/06/29 08:33:21;;;;;;;1.10;0.20;;;;;;;;;;4977112;28;20037;-81
2022/06/29 08:35:48;;;;;;;0.60;0.30;;;;;;;;;;4968873;28;20046;-82
2022/06/29 08:38:14;;;;;;;9.52;0.57;;;;;;;;;;4962704;28;20039;-82
2022/06/29 08:40:47;;;;;;;0.40;0.17;;;;;;;;;;4965924;28;20217;-83
2022/06/29 08:43:17;;;;;;;2.20;0.28;;;35.80;37.40;;;;;;4959973;28;20054;-82
2022/06/29 08:45:48;;;;;;;1.83;0.57;;;36.20;36.50;;;;;;4963587;28;20054;-83
2022/06/29 08:48:15;;;;;;;1.05;0.30;;;36.10;36.80;;;;;;4964623;28;20035;-82
2022/06/29 08:50:42;;;;;;;2.30;0.28;;;;;;;;;;4964509;28;20038;-83
2022/06/29 08:53:13;;;;;;;0.55;0.15;;;36.20;36.80;;;;;;4964295;28;20106;-83
2022/06/29 08:55:47;;;;;;;2.60;0.45;;;36.30;36.40;;;;;;4964306;28;20042;-81
2022/06/29 08:58:18;;;;;;;1.10;0.43;;;36.70;36.10;;;;;;4963454;28;20445;-81
2022/06/29 09:00:45;;;;;;;1.13;0.28;;;;;;;;;;4963554;28;20114;-83
2022/06/29 09:03:11;;;;;;;2.08;0.52;;;;;;;;;;4967733;28;20435;-83
2022/06/29 09:05:38;;;;;;;0.52;0.20;;;36.70;34.80;;;;;;4965763;28;20039;-81
2022/06/29 09:08:04;;;;;;;2.58;0.60;;;;;;;;;;4968133;28;20027;-82
2022/06/29 09:10:30;;;;;;;1.17;0.47;;;;;;;;;;4968334;28;20085;-83
2022/06/29 09:12:58;;;;;;;2.38;0.40;;;;;;;;;;4967402;28;20403;-83
2022/06/29 09:15:36;;;;;;;0.98;0.45;;;36.80;34.80;;;;;;4968062;28;20042;-87
2022/06/29 09:18:03;;;;;;;1.25;0.30;;;;;;;;;;4982229;28;20031;-88
2022/06/29 09:20:41;;;;;;;1.65;0.73;;;36.80;35.40;;;;;;4968497;28;20038;-83
2022/06/29 09:23:10;;;;;;;2.42;0.40;;;;;;;;;;4968129;28;20042;-82
2022/06/29 09:25:39;;;;;;;4.32;0.80;;;;;;;;;;4967488;28;20035;-83
2022/06/29 09:28:23;;;;;;;4.47;0.43;;;;;;;;;;4967012;28;20033;-83
2022/06/29 09:30:49;;;;;;;3.63;0.80;;;;;;;;;;4967338;28;20031;-84
2022/06/29 09:33:15;;;;;;;1.58;0.35;;;;;;;;;;4967623;28;20030;-83
2022/06/29 09:35:42;;;;;;;0.77;0.25;;;;;;;;;;4978681;28;20027;-82
2022/06/29 09:38:18;;;;;;;;;;;36.80;34.30;;;;;;4977940;28;20065;-89
2022/06/29 09:41:07;;;;;;;0.65;0.32;;;;;;;;;;4972025;28;19917;-88
2022/06/29 09:43:35;;;;;;;5.13;0.70;;;37.20;34.30;;;;;;4999941;28;20057;-89
2022/06/29 09:46:01;;;;;;;1.92;0.50;;;;;;;;;;4971863;28;20050;-88
2022/06/29 09:48:29;;;;;;;1.95;1.20;;;36.60;34.80;;;;;;4964755;28;20058;-88
2022/06/29 09:50:55;;;;;;;0.80;0.28;;;;;;;;;;4980214;28;20042;-87
2022/06/29 09:53:37;;;;;;;2.28;0.32;;;36.90;35.00;;;;;;4968999;28;20039;-88
2022/06/29 09:56:05;;;;;;;3.05;0.20;;;37.00;34.80;;;;;;4980530;28;20023;-90
2022/06/29 09:58:48;;;;;;;1.65;0.47;;;37.10;33.80;;;;;;4969950;28;20041;-87
2022/06/29 10:03:59;;;;;;;7.63;0.45;;;;;;;;;;4984047;28;20109;-89
2022/06/29 10:06:25;;;;;;;1.10;0.20;;;;;;;;;;4971381;28;20027;-91
2022/06/29 10:08:56;;;;;;;0.45;0.20;;;;;;;;;;4983136;28;20056;-89
2022/06/29 10:14:28;;;;;;;0.73;0.30;;;;;;;;;;4969749;28;20062;-89
2022/06/29 10:17:13;;;;;;;1.25;0.38;;;;;;;;;;4973810;28;20039;-90
2022/06/29 10:19:54;;;;;;;0.80;0.30;;;;;;;;;;5006725;28;20114;-88
2022/06/29 10:22:20;;;;;;;2.03;0.30;;;;;;;;;;4968278;28;20500;-90
2022/06/29 10:25:02;;;;;;;4.55;0.25;;;;;;;;;;4968609;28;20023;-89
2022/06/29 10:27:28;;;;;;;0.98;0.35;;;;;;;;;;4970476;28;20110;-90
2022/06/29 10:30:21;;;;;;;2.92;0.22;;;35.90;34.70;;;;;;4980217;28;20101;-89
2022/06/29 10:32:47;;;;;;;1.40;0.32;;;;;;;;;;4974248;28;20039;-89
2022/06/29 10:35:13;;;;;;;1.00;0.30;;;;;;;;;;4978445;28;20056;-90
2022/06/29 10:37:54;;;;;;;1.50;0.32;;;36.20;35.00;;;;;;4974226;28;20400;-90
2022/06/29 10:40:24;;;;;;;0.40;0.20;;;37.30;35.50;;;;;;4971918;28;20117;-88
2022/06/29 10:43:10;;;;;;;1.98;0.10;;;35.80;35.20;;;;;;4971420;28;20051;-87
2022/06/29 10:45:37;;;;;;;1.90;0.33;;;;;;;;;;4974466;28;20027;-89
2022/06/29 10:48:07;;;;;;;1.58;0.63;;;;;;;;;;4973905;28;20034;-90
2022/06/29 10:50:34;;;;;;;0.38;0.10;;;36.00;36.10;;;;;;4971128;28;20030;-90
2022/06/29 10:53:12;;;;;;;2.42;0.40;;;36.40;34.20;;;;;;4974317;28;20389;-91
2022/06/29 10:55:42;;;;;;;0.55;0.20;;;;;;;;;;4987356;28;20026;-90
2022/06/29 10:58:08;;;;;;;1.88;0.40;;;;;;;;;;4974244;28;20035;-90
2022/06/29 11:00:40;;;;;;;0.95;0.30;;;;;;;;;;4973883;28;20038;-89
2022/06/29 11:03:11;;;;;;;1.75;0.43;;;;;;;;;;4987677;28;20047;-89
2022/06/29 11:05:38;;;;;;;1.45;0.35;;;;;;;;;;4966772;28;21022;-89
2022/06/29 11:13:33;;;;;;;1.27;0.32;;;;;;;;;;4973176;28;20423;-88
2022/06/29 11:16:00;;;;;;;1.35;0.30;;;31.40;39.90;;;;;;4969611;28;20078;-90
2022/06/29 11:18:31;;;;;;;2.53;1.20;;;30.60;40.70;;;;;;4968785;28;20038;-89
2022/06/29 11:21:04;;;;;;;0.30;0.30;;;;;;;;;;4969823;28;20053;-81
2022/06/29 11:23:34;;;;;;;3.85;0.68;;;;;;;;;;4963236;28;20194;-82
2022/06/29 11:26:01;;;;;;;2.72;0.40;;;;;;;;;;4959611;28;20142;-80
2022/06/29 11:28:27;;;;;;;;;;;;;;;;;;4965151;28;20031;-81
2022/06/29 11:30:59;;;;;;;3.65;0.30;;;;;;;;;;4959467;28;20000;-81
2022/06/29 11:33:27;;;;;;;5.25;0.73;;;;;;;;;;4957060;28;20062;-82
2022/06/29 11:35:54;;;;;;;1.75;0.65;;;;;;;;;;4958331;28;20018;-81
2022/06/29 11:38:20;;;;;;;0.90;0.38;;;;;;;;;;4958910;28;20031;-79
2022/06/29 11:40:50;;;;;;;0.60;0.35;;;;;;;;;;4972330;28;20538;-82
2022/06/29 11:43:17;;;;;;;2.88;0.60;;;;;;;;;;4962405;28;20082;-81
2022/06/29 11:45:46;;;;;;;0.40;0.20;;;;;;;;;;4971781;28;20396;-80
2022/06/29 11:48:12;;;;;;;0.80;0.30;;;;;;;;;;4958251;28;20077;-80
2022/06/29 11:50:48;;;;;;;2.83;0.70;;;;;;;;;;4964950;28;20716;-80
2022/06/29 11:53:14;;;;;;;0.57;0.40;;;;;;;;;;4968294;28;20019;-81
2022/06/29 11:55:44;;;;;;;0.52;0.50;;;;;;;;;;4969155;28;20731;-80
2022/06/29 11:58:10;;;;;;;1.42;0.68;;;;;;;;;;4967634;28;20487;-80
2022/06/29 12:00:39;;;;;;;3.45;0.70;;;;;;;;;;4965661;28;20057;-80
2022/06/29 12:03:05;;;;;;;0.70;0.35;;;;;;;;;;4961440;28;20047;-80
2022/06/29 12:05:31;;;;;;;1.42;1.00;;;;;;;;;;4972616;28;20034;-80
2022/06/29 12:07:57;;;;;;;0.93;0.40;;;;;;;;;;4974954;28;20022;-82
2022/06/29 12:10:23;;;;;;;3.67;0.82;;;;;;;;;;4964433;28;20042;-80
2022/06/29 12:12:49;;;;;;;0.85;0.40;;;;;;;;;;4962859;28;20054;-80
2022/06/29 12:15:16;;;;;;;2.28;0.40;;;;;;;;;;4974991;28;20035;-80
2022/06/29 12:17:43;;;;;;;0.98;0.30;;;;;;;;;;4965426;28;20031;-79
2022/06/29 12:20:09;;;;;;;3.85;1.10;;;27.60;68.50;;;;;;4963709;28;20033;-80
2022/06/29 12:22:35;;;;;;;2.90;0.57;;;;;;;;;;4963530;28;20070;-80
2022/06/29 12:25:01;;;;;;;0.52;0.40;;;;;;;;;;4963810;28;20030;-80
2022/06/29 12:27:27;;;;;;;1.17;0.50;;;;;;;;;;4970373;28;20549;-80
2022/06/29 12:29:53;;;;;;;1.17;0.60;;;;;;;;;;4990304;28;20066;-80
2022/06/29 12:32:19;;;;;;;0.52;0.22;;;;;;;;;;4973285;28;20073;-79
2022/06/29 12:34:45;;;;;;;0.88;0.40;;;;;;;;;;4962829;28;20542;-80
2022/06/29 12:37:11;;;;;;;4.57;0.50;;;;;;;;;;4964892;28;20041;-79
2022/06/29 12:39:37;;;;;;;0.68;0.40;;;;;;;;;;4973199;28;20034;-81
2022/06/29 12:42:03;;;;;;;2.53;0.60;;;;;;;;;;4979992;28;20038;-80
2022/06/29 12:44:30;;;;;;;1.17;0.40;;;;;;;;;;4964891;28;20603;-80
2022/06/29 12:46:56;;;;;;;0.57;0.30;;;;;;;;;;4971067;28;20491;-79
2022/06/29 12:49:22;;;;;;;1.63;0.65;;;;;;;;;;4965869;28;20034;-79
2022/06/29 12:51:48;;;;;;;0.30;0.20;;;;;;;;;;4979020;28;20400;-80
2022/06/29 12:54:14;;;;;;;0.85;0.80;;;;;;;;;;4967769;28;20567;-79
2022/06/29 12:56:40;;;;;;;1.38;0.45;;;;;;;;;;4976414;28;20114;-79
2022/06/29 12:59:06;;;;;;;0.63;0.30;;;;;;;;;;4981994;28;20054;-79
2022/06/29 13:01:32;;;;;;;1.13;0.22;;;;;;;;;;4972327;28;20061;-79
2022/06/29 13:03:58;;;;;;;1.00;0.30;;;;;;;;;;4971554;28;20051;-80
2022/06/29 13:06:24;;;;;;;3.78;0.40;;;;;;;;;;4974410;28;20051;-80
2022/06/29 13:08:50;;;;;;;0.57;0.45;;;;;;;;;;4980614;28;20041;-80
2022/06/29 13:11:16;;;;;;;1.58;0.50;;;;;;;;;;4975451;28;20022;-81
2022/06/29 13:13:42;;;;;;;0.70;0.40;;;;;;;;;;4964377;28;20062;-81
2022/06/29 13:16:08;;;;;;;0.75;0.40;;;;;;;;;;4986622;28;20142;-81
2022/06/29 13:18:35;;;;;;;2.75;0.93;;;;;;;;;;4972150;28;20035;-81
2022/06/29 13:21:01;;;;;;;0.30;0.20;;;26.50;60.30;;;;;;4976620;28;20373;-81
2022/06/29 13:23:27;;;;;;;2.25;0.45;;;;;;;;;;4976211;28;20038;-80
2022/06/29 13:25:53;;;;;;;0.85;0.40;;;;;;;;;;4967900;28;20027;-81
2022/06/29 13:28:19;;;;;;;2.72;0.40;;;;;;;;;;4965586;28;20065;-81
2022/06/29 13:30:45;;;;;;;2.05;0.75;;;;;;;;;;4965605;28;20029;-81
2022/06/29 13:33:11;;;;;;;8.35;0.75;;;;;;;;;;4979457;28;20027;-80
2022/06/29 13:35:37;;;;;;;1.30;0.43;;;;;;;;;;4975575;28;20034;-81
2022/06/29 13:38:04;;;;;;;0.20;0.20;;;;;;;;;;4969462;28;20391;-81
2022/06/29 13:40:30;;;;;;;1.75;0.50;;;;;;;;;;4964322;28;20110;-82
2022/06/29 13:42:57;;;;;;;2.05;0.30;;;;;;;;;;4963049;28;20621;-80
2022/06/29 13:45:23;;;;;;;0.70;0.50;;;;;;;;;;4967573;28;20090;-80
2022/06/29 13:47:49;;;;;;;0.95;0.55;;;;;;;;;;4967808;28;20850;-82
2022/06/29 13:50:15;;;;;;;1.65;0.45;;;;;;;;;;4977654;28;20093;-83
2022/06/29 13:52:41;;;;;;;1.63;0.75;;;;;;;;;;4972676;28;20435;-81
2022/06/29 13:55:07;;;;;;;5.47;1.13;;;;;;;;;;4970128;28;20023;-81
2022/06/29 13:57:33;;;;;;;0.50;0.38;;;;;;;;;;4974067;28;20575;-81
2022/06/29 13:59:59;;;;;;;1.95;0.40;;;;;;;;;;4995102;28;20130;-81
2022/06/29 14:02:25;;;;;;;0.95;0.85;;;;;;;;;;4964135;28;20038;-81
2022/06/29 14:04:51;;;;;;;0.52;0.20;;;;;;;;;;4975315;28;20435;-80
2022/06/29 14:07:18;;;;;;;3.83;0.22;;;;;;;;;;4970356;28;20075;-82
2022/06/29 14:09:44;;;;;;;0.40;0.30;;;;;;;;;;4970825;28;20093;-81
2022/06/29 14:12:10;;;;;;;0.40;0.38;;;;;;;;;;4967070;28;20030;-81
2022/06/29 14:14:36;;;;;;;1.55;0.68;;;;;;;;;;4975460;28;20564;-81
2022/06/29 14:17:02;;;;;;;1.55;0.63;;;;;;;;;;4975841;28;20034;-81
2022/06/29 14:19:32;;;;;;;1.88;0.20;;;;;;;;;;4965793;28;20022;-82
2022/06/29 14:21:58;;;;;;;0.82;0.50;;;;;;;;;;4963993;28;20051;-82
2022/06/29 14:24:27;;;;;;;0.55;0.50;;;;;;;;;;4977125;28;20023;-81
2022/06/29 14:26:53;;;;;;;0.60;0.38;;;;;;;;;;4974361;28;20031;-82
2022/06/29 14:29:19;;;;;;;1.00;0.57;;;;;;;;;;4982046;28;20026;-82
2022/06/29 14:31:45;;;;;;;1.30;0.63;;;;;;;;;;4972806;28;20491;-82
2022/06/29 14:34:11;;;;;;;3.22;0.45;;;;;;;;;;4971411;28;20027;-82
2022/06/29 14:36:37;;;;;;;3.40;0.50;;;;;;;;;;4971996;28;20057;-81
2022/06/29 14:39:03;;;;;;;1.48;0.73;;;;;;;;;;4977837;28;20038;-81
2022/06/29 14:41:30;;;;;;;1.85;0.30;;;;;;;;;;4975682;28;20050;-82
2022/06/29 14:43:56;;;;;;;0.60;0.53;;;;;;;;;;4964887;28;20071;-82
2022/06/29 14:46:22;;;;;;;1.02;0.45;;;;;;;;;;4966472;28;20050;-80
2022/06/29 14:48:48;;;;;;;2.13;0.65;;;;;;;;;;4972675;28;20035;-81